Latest Weather Observations for Middle Percy Island

IDQ60801

Issued at 6:32 pm EST Thursday 30 March 2017 (issued every 30 minutes, with the page automatically refreshed every 10 minutes)

About weather observations | Map of weather stations | Latest weather observations for QLD | Other Formats
Station Details ID: 200001 Name: MIDDLE PERCY ISLAND Lat: -21.66 Lon: 150.27 Height: 208.7 m
Data from the previous 72 hours. | See also: Recent months at Middle Percy Island
Date/Time
EST
Temp
°C
App
Temp
°C
Dew
Point
°C
Rel
Hum
%
Delta-T
°C
Wind Press
QNH
hPa
Press
MSL
hPa
Rain since
9am
mm
Dir  Spd
km/h
Gust
km/h
Spd
kts
Gust
kts
30/06:30pm 26.9 29.5 24.9 89 1.4 NNW 20 33 11 18 1007.7 1006.5 9.4
30/06:00pm 27.1 29.8 25.1 89 1.4 NW 20 33 11 18 1007.4 1006.1 9.4
30/05:30pm 27.2 30.1 25.4 90 1.3 NNW 20 32 11 17 1007.1 1005.8 9.4
30/05:00pm 27.6 30.6 25.6 89 1.4 NNW 20 32 11 17 1006.8 1005.5 9.4
30/04:30pm 28.0 30.9 26.0 89 1.4 NW 22 37 12 20 1006.5 1005.2 9.4
30/04:00pm 27.8 - - - - NW 22 39 12 21 1006.3 1005.0 9.4
30/03:30pm 28.0 - - - - NNW 24 41 13 22 1006.0 1004.7 9.4
30/03:00pm 27.4 - - - - NNW 26 48 14 26 1006.0 1004.7 9.4
30/02:39pm 27.3 - - - - NNW 28 46 15 25 1006.0 1004.7 9.4
30/02:30pm 27.6 - - - - NW 30 46 16 25 1005.9 1004.6 9.4
30/02:10pm 28.0 - - - - NW 28 46 15 25 1005.9 1004.6 9.4
30/02:00pm 27.3 - - - - NW 28 46 15 25 1005.9 1004.6 9.4
30/01:33pm 26.9 - - - - NNW 32 52 17 28 1005.5 1004.2 9.2
30/01:30pm 26.9 - - - - NNW 35 52 19 28 1005.5 1004.2 9.2
30/01:00pm 27.6 - - - - NNW 41 61 22 33 1005.8 1004.5 8.8
30/12:30pm 27.8 - - - - NNW 35 54 19 29 1005.9 1004.6 8.8
30/12:00pm 27.6 - - - - NNW 43 63 23 34 1006.0 1004.7 8.8
30/11:30am 27.3 - - - - NNW 52 76 28 41 1005.8 1004.5 8.8
30/11:00am 26.7 - - - - NNW 52 83 28 45 1006.0 1004.7 8.8
30/10:56am 26.6 - - - - NNW 48 83 26 45 1005.5 1004.2 8.8
30/10:51am 26.2 - - - - NNW 52 87 28 47 1005.8 1004.5 8.8
30/10:49am 26.1 - - - - NNW 54 87 29 47 1006.2 1004.9 8.4
30/10:44am 26.4 - - - - NNW 52 83 28 45 1005.4 1004.1 6.4
30/10:40am 26.3 - - - - NNW 54 76 29 41 1006.2 1004.9 6.2
30/10:39am 26.3 - - - - NNW 56 98 30 53 1006.0 1004.7 6.2
30/10:30am 26.6 - - - - NNW 67 98 36 53 1005.2 1004.0 5.4
30/10:00am 26.3 - - - - NNW 54 83 29 45 1005.8 1004.5 4.8
30/09:30am 26.3 - - - - NNW 48 80 26 43 1005.8 1004.5 3.2
30/09:00am 24.6 - - - - NNW 46 76 25 41 1006.8 1005.5 157.4
30/08:30am 25.8 - - - - N 39 67 21 36 1006.5 1005.2 155.2
30/08:00am 25.4 - - - - N 48 74 26 40 1005.9 1004.6 155.2
30/07:30am 24.0 - - - - N 43 78 23 42 1006.4 1005.1 155.2
30/07:00am 25.4 - - - - N 50 78 27 42 1005.0 1003.8 146.8
30/06:30am 25.7 - - - - N 57 93 31 50 1003.9 1002.7 146.8
30/06:27am 25.6 - - - - N 57 91 31 49 1003.7 1002.5 146.8
30/06:02am 25.3 - - - - N 44 89 24 48 1004.0 1002.8 145.0
30/06:00am 25.3 - - - - N 41 65 22 35 1004.5 1003.3 145.0
30/05:43am 25.3 - - - - N 41 74 22 40 1004.4 1003.2 144.0
30/05:30am 23.8 - - - - NNW 37 70 20 38 1005.2 1004.0 138.2
30/05:09am 23.3 - - - - NNW 52 91 28 49 1003.9 1002.7 119.0
30/05:00am 23.6 - - - - NNW 44 72 24 39 1005.0 1003.8 107.2
30/04:50am 23.2 - - - - NNW 35 54 19 29 1005.7 1004.4 99.2
30/04:30am 23.3 - - - - N 48 91 26 49 1003.6 1002.4 90.0
30/04:00am 23.1 - - - - N 46 72 25 39 1005.0 1003.8 75.2
30/03:30am 25.2 - - - - N 56 87 30 47 1003.9 1002.7 66.2
30/03:00am 25.2 - - - - N 52 76 28 41 1004.9 1003.7 63.4
30/02:30am 25.1 - - - - N 54 85 29 46 1005.6 1004.3 61.6
30/02:00am 25.0 - - - - N 44 70 24 38 1005.6 1004.3 53.0
30/01:30am 24.7 - - - - N 46 67 25 36 1006.1 1004.8 48.4
30/01:01am 22.6 - - - - N 30 50 16 27 1007.4 1006.1 39.6
30/01:00am 22.6 - - - - N 32 50 17 27 1007.4 1006.1 39.4
30/12:30am 23.8 - - - - N 54 83 29 45 1006.8 1005.5 24.4
30/12:00am 25.6 - - - - NNE 54 82 29 44 1006.4 1005.1 13.4
 
Date/Time
EST
Temp
°C
App
Temp
°C
Dew
Point
°C
Rel
Hum
%
Delta-T
°C
Wind Press
QNH
hPa
Press
MSL
hPa
Rain since
9am
mm
Dir  Spd
km/h
Gust
km/h
Spd
kts
Gust
kts
29/11:30pm 25.6 - - - - NNE 46 70 25 38 1007.6 1006.3 12.0
29/11:00pm 26.0 - - - - N 50 76 27 41 1007.3 1006.0 9.4
29/10:30pm 25.8 - - - - NNE 54 82 29 44 1006.8 1005.5 9.2
29/10:00pm 26.2 - - - - NNE 48 76 26 41 1008.1 1006.9 8.2
29/09:30pm 26.4 - - - - NNE 48 70 26 38 1007.8 1006.6 8.2
29/09:00pm 26.6 - - - - NNE 50 76 27 41 1007.2 1005.9 8.2
29/08:30pm 26.5 - - - - NNE 52 74 28 40 1007.3 1006.0 8.2
29/08:00pm 26.5 - - - - NNE 50 78 27 42 1006.9 1005.6 8.2
29/07:30pm 26.5 - - - - NNE 54 87 29 47 1005.6 1004.3 8.2
29/07:00pm 26.4 - - - - NNE 52 76 28 41 1005.8 1004.5 8.2
29/06:30pm 26.5 - - - - NNE 50 78 27 42 1006.2 1004.9 8.2
29/06:00pm 26.5 - - - - NNE 50 70 27 38 1005.9 1004.6 8.2
29/05:30pm 26.5 - - - - NNE 50 70 27 38 1005.6 1004.3 8.2
29/05:00pm 26.5 - - - - NNE 48 78 26 42 1005.6 1004.3 8.2
29/04:30pm 26.5 - - - - NNE 46 82 25 44 1005.2 1004.0 8.2
29/04:00pm 26.5 - - - - NNE 44 65 24 35 1004.5 1003.3 8.2
29/03:30pm 26.6 - - - - NNE 48 72 26 39 1004.9 1003.7 8.2
29/03:00pm 26.6 - - - - NNE 44 67 24 36 1004.9 1003.7 8.2
29/02:30pm 26.6 - - - - NNE 52 76 28 41 1004.9 1003.7 8.2
29/02:00pm 26.5 - - - - NNE 44 69 24 37 1005.1 1003.9 8.2
29/01:30pm 26.6 - - - - NNE 41 67 22 36 1005.6 1004.3 8.2
29/01:00pm 26.6 - - - - NNE 44 69 24 37 1006.0 1004.7 8.2
29/12:30pm 26.6 - - - - NNE 41 63 22 34 1006.4 1005.1 8.2
29/12:00pm 26.4 - - - - NNE 41 76 22 41 1006.8 1005.5 8.2
29/11:30am 26.4 - - - - NNE 44 67 24 36 1007.0 1005.7 8.2
29/11:00am 26.1 - - - - NNE 37 56 20 30 1007.4 1006.1 8.2
29/10:30am 26.1 - - - - NNE 43 63 23 34 1007.4 1006.1 8.2
29/10:00am 25.9 - - - - NNE 43 70 23 38 1008.2 1007.0 7.0
29/09:30am 25.6 - - - - NNE 39 67 21 36 1008.0 1006.8 5.0
29/09:19am 25.3 - - - - NNE 30 63 16 34 1007.8 1006.6 1.0
29/09:00am 24.7 - - - - NNE 32 50 17 27 1008.4 1007.2 119.4
29/08:30am 23.7 - - - - NNE 43 63 23 34 1008.2 1007.0 119.4
29/08:00am 23.8 - - - - N 39 65 21 35 1007.3 1006.0 119.4
29/07:34am 25.8 - - - - NNE 37 67 20 36 1006.9 1005.6 112.0
29/07:30am 25.4 - - - - NNE 28 48 15 26 1007.3 1006.0 111.8
29/07:04am 24.1 - - - - NNE 44 76 24 41 1007.0 1005.7 111.4
29/07:00am 24.6 - - - - NNE 50 87 27 47 1006.9 1005.6 111.4
29/06:58am 24.5 - - - - NNE 56 89 30 48 1006.9 1005.6 111.4
29/06:52am 24.3 - - - - NE 56 89 30 48 1005.8 1004.5 111.0
29/06:51am 24.1 - - - - NE 54 89 29 48 1004.9 1003.7 111.0
29/06:50am 24.2 - - - - NE 52 89 28 48 1004.7 1003.5 111.0
29/06:30am 25.8 - - - - NE 43 69 23 37 1006.5 1005.2 105.2
29/06:00am 25.6 - - - - NE 46 70 25 38 1006.4 1005.1 104.0
29/05:30am 25.9 - - - - NNE 46 72 25 39 1005.8 1004.5 101.6
29/05:00am 25.8 - - - - NNE 44 65 24 35 1005.8 1004.5 100.4
29/04:30am 25.8 - - - - NE 48 67 26 36 1004.8 1003.6 99.4
29/04:00am 26.0 - - - - NE 50 80 27 43 1004.6 1003.4 99.0
29/03:30am 25.8 - - - - NE 48 70 26 38 1004.6 1003.4 98.6
29/03:00am 26.0 - - - - NNE 46 69 25 37 1004.7 1003.5 98.4
29/02:30am 26.0 - - - - NE 44 72 24 39 1004.9 1003.7 98.2
29/02:00am 25.9 - - - - NE 43 67 23 36 1005.1 1003.9 98.0
29/01:30am 25.9 - - - - NE 44 69 24 37 1005.7 1004.4 97.4
29/01:00am 26.0 - - - - NE 43 72 23 39 1006.1 1004.8 95.8
29/12:30am 26.1 - - - - NE 37 63 20 34 1006.7 1005.4 94.4
29/12:00am 26.0 - - - - NE 44 74 24 40 1005.5 1004.2 93.0
 
Date/Time
EST
Temp
°C
App
Temp
°C
Dew
Point
°C
Rel
Hum
%
Delta-T
°C
Wind Press
QNH
hPa
Press
MSL
hPa
Rain since
9am
mm
Dir  Spd
km/h
Gust
km/h
Spd
kts
Gust
kts
28/11:30pm 26.0 - - - - NE 37 63 20 34 1006.5 1005.2 91.2
28/11:00pm 26.0 - - - - NE 46 74 25 40 1006.3 1005.0 89.2
28/10:30pm 26.0 - - - - NE 44 78 24 42 1006.1 1004.8 87.8
28/10:00pm 26.0 - - - - NE 46 70 25 38 1006.2 1004.9 85.8
28/09:30pm 26.1 - - - - NE 46 74 25 40 1005.9 1004.6 84.0
28/09:00pm 26.1 - - - - NE 52 72 28 39 1005.4 1004.1 82.2
28/08:30pm 26.0 - - - - NE 54 85 29 46 1004.9 1003.7 79.8
28/08:00pm 26.2 - - - - NE 54 80 29 43 1004.6 1003.4 74.8
28/07:30pm 26.1 - - - - NE 48 76 26 41 1004.2 1003.0 72.8
28/07:00pm 26.1 - - - - NE 48 83 26 45 1003.8 1002.6 71.2
28/06:30pm 25.8 - - - - ENE 43 74 23 40 1003.4 1002.2 68.8
28/06:00pm 26.0 - - - - ENE 39 69 21 37 1003.4 1002.2 64.8
28/05:30pm 25.9 - - - - ENE 43 65 23 35 1003.1 1001.8 62.4
28/05:00pm 26.0 - - - - NE 44 76 24 41 1003.0 1001.7 59.4
28/04:30pm 26.0 - - - - NE 52 74 28 40 1002.5 1001.2 57.0
28/04:00pm 26.1 - - - - NE 48 78 26 42 1002.4 1001.1 55.4
28/03:30pm 26.0 - - - - NE 52 85 28 46 1002.3 1001.0 54.0
28/03:00pm 25.9 - - - - NE 48 80 26 43 1001.7 1000.4 52.6
28/02:30pm 25.4 - - - - NE 44 76 24 41 1001.7 1000.4 50.8
28/02:17pm 25.5 - - - - NE 50 96 27 52 1001.8 1000.5 46.4
28/02:00pm 25.6 - - - - ENE 46 74 25 40 1002.1 1000.8 44.4
28/01:30pm 24.5 - - - - NE 46 69 25 37 1002.6 1001.3 39.6
28/01:00pm 25.8 - - - - ENE 39 59 21 32 1003.3 1002.0 15.4
28/12:30pm 25.1 - - - - ENE 39 65 21 35 1003.5 1002.3 14.0
28/12:25pm 25.1 - - - - NE 43 65 23 35 1003.4 1002.2 14.0
28/12:24pm 25.1 - - - - NE 43 65 23 35 1003.2 1001.9 14.0
28/12:19pm 25.0 - - - - NE 41 67 22 36 1003.6 1002.4 13.4
28/12:17pm 24.8 - - - - ENE 41 67 22 36 1003.2 1001.9 12.8
28/12:00pm 25.3 - - - - E 28 56 15 30 1003.6 1002.4 7.6
28/11:30am 25.4 - - - - ENE 41 67 22 36 1004.0 1002.8 4.4
28/11:00am 25.4 - - - - ENE 28 52 15 28 1004.8 1003.6 3.0
28/10:47am 25.2 - - - - E 28 61 15 33 1004.8 1003.6 3.0
28/10:30am 25.3 - - - - E 26 48 14 26 1005.2 1004.0 2.4
28/10:00am 25.4 - - - - E 30 57 16 31 1005.6 1004.3 0.8
28/09:30am 25.3 - - - - ENE 32 54 17 29 1005.8 1004.5 0.4
28/09:00am 24.8 - - - - ENE 32 59 17 32 1005.7 1004.4 46.2
28/08:30am 24.6 - - - - ENE 44 74 24 40 1005.1 1003.9 44.0
28/08:00am 24.7 - - - - E 28 57 15 31 1004.7 1003.5 41.6
28/07:45am 24.7 - - - - E 28 69 15 37 1004.5 1003.3 39.6
28/07:30am 24.9 - - - - E 24 59 13 32 1004.6 1003.4 36.2
28/07:00am 25.2 - - - - E 28 54 15 29 1004.2 1003.0 33.0
28/06:30am 25.2 - - - - ENE 30 57 16 31 1003.8 1002.6 32.6
28/06:03am 25.3 - - - - ENE 28 61 15 33 1003.5 1002.3 31.8
28/06:00am 25.3 - - - - ENE 26 54 14 29 1003.6 1002.4 31.6
28/05:30am 25.9 - - - - E 26 54 14 29 1003.2 1001.9 30.6
28/05:00am 25.6 - - - - E 28 59 15 32 1003.0 1001.7 30.6
28/04:51am 25.6 - - - - E 28 59 15 32 1002.9 1001.6 30.6
28/04:30am 25.5 - - - - E 26 57 14 31 1003.0 1001.7 30.4
28/04:00am 25.4 - - - - ESE 22 57 12 31 1002.9 1001.6 30.4
28/03:45am 25.4 - - - - ESE 28 61 15 33 1003.0 1001.7 30.4
28/03:30am 25.2 - - - - ESE 26 52 14 28 1002.7 1001.4 30.4
28/03:07am 25.0 - - - - ESE 28 52 15 28 1002.6 1001.3 30.4
28/03:00am 24.8 - - - - ESE 22 43 12 23 1002.8 1001.5 30.4
28/02:30am 25.0 - - - - ESE 32 57 17 31 1003.2 1001.9 30.4
28/02:00am 25.3 - - - - ESE 33 67 18 36 1003.8 1002.6 30.4
28/01:30am 25.5 - - - - ESE 33 61 18 33 1003.8 1002.6 30.4
28/01:04am 25.1 - - - - ESE 28 50 15 27 1004.2 1003.0 30.4
28/01:00am 24.9 - - - - ESE 22 50 12 27 1004.2 1003.0 30.4
28/12:36am 24.9 - - - - ESE 28 54 15 29 1004.1 1002.9 30.4
28/12:30am 24.2 - - - - ESE 26 56 14 30 1004.2 1003.0 30.2
28/12:00am 24.9 - - - - E 33 65 18 35 1004.5 1003.3 27.2
 
Date/Time
EST
Temp
°C
App
Temp
°C
Dew
Point
°C
Rel
Hum
%
Delta-T
°C
Wind Press
QNH
hPa
Press
MSL
hPa
Rain since
9am
mm
Dir  Spd
km/h
Gust
km/h
Spd
kts
Gust
kts
27/11:59pm 25.1 - - - - ESE 35 65 19 35 1004.5 1003.3 27.2
27/11:30pm 25.5 - - - - ESE 52 76 28 41 1004.5 1003.3 23.2
27/11:00pm 25.4 - - - - ESE 50 72 27 39 1004.6 1003.4 22.0
27/10:30pm 25.0 - - - - ESE 39 65 21 35 1005.2 1004.0 21.6
27/10:15pm 25.1 - - - - ESE 37 80 20 43 1004.6 1003.4 21.2
27/10:07pm 25.0 - - - - E 30 61 16 33 1005.2 1004.0 19.8
27/10:03pm 25.0 - - - - ESE 32 63 17 34 1005.2 1004.0 19.8
27/10:00pm 25.3 - - - - ESE 39 65 21 35 1005.2 1004.0 18.8
27/09:30pm 25.9 - - - - ESE 54 76 29 41 1005.1 1003.9 16.6
27/09:00pm 25.8 - - - - SE 46 72 25 39 1005.4 1004.1 16.6
27/08:30pm 25.4 - - - - ESE 41 70 22 38 1005.4 1004.1 16.2
27/08:00pm 25.4 - - - - ESE 32 59 17 32 1005.0 1003.8 15.8
27/07:30pm 25.3 - - - - ESE 37 61 20 33 1004.8 1003.6 15.6
27/07:03pm 25.3 - - - - ESE 32 76 17 41 1004.4 1003.2 15.6
27/07:00pm 25.3 - - - - ESE 30 54 16 29 1004.4 1003.2 15.6

Other Formats:

Comma delimited format used in spreadsheet applications
http://www.bom.gov.au/fwo/IDQ60801/IDQ60801.94372.axf

JavaScript Object Notation format (JSON) in row-major order
http://www.bom.gov.au/fwo/IDQ60801/IDQ60801.94372.json